Time;durP1;ratioP1;P1;durP2;ratioP2;P2;SDS_P1;SDS_P2;PMS_P1;PMS_P2;Temp;Humidity;BMP_temperature;BMP_pressure;BME280_temperature;BME280_humidity;BME280_pressure;Samples;Min_cycle;Max_cycle;Signal;HPM_P1;HPM_P2
2024/03/26 00:02:23;;;;;;;1.00;1.00;;;;;;;4.03;63.61;96752.50;6153782;23;20017;-90
2024/03/26 00:04:52;;;;;;;1.00;1.00;;;;;;;3.88;63.91;96753.88;6154185;23;20028;-90
2024/03/26 00:07:17;;;;;;;1.00;1.00;;;;;;;3.58;65.83;96750.56;6152141;23;20013;-90
2024/03/26 00:09:44;;;;;;;0.90;0.90;;;;;;;3.37;65.92;96750.06;6129999;23;20455;-88
2024/03/26 00:12:10;;;;;;;0.90;0.90;;;;;;;3.01;68.04;96747.34;6177495;23;20013;-89
2024/03/26 00:14:36;;;;;;;1.00;1.00;;;;;;;2.78;68.39;96750.28;6179945;23;20013;-89
2024/03/26 00:17:02;;;;;;;0.85;0.85;;;;;;;2.78;69.40;96755.53;6155237;23;20031;-89
2024/03/26 00:19:28;;;;;;;0.93;0.93;;;;;;;3.03;70.24;96754.47;6154809;23;20028;-89
2024/03/26 00:21:55;;;;;;;1.00;1.00;;;;;;;3.16;68.35;96744.22;6153264;23;20020;-89
2024/03/26 00:24:21;;;;;;;1.00;1.00;;;;;;;3.87;65.58;96739.81;6154207;23;20013;-89
2024/03/26 00:26:46;;;;;;;1.00;1.00;;;;;;;3.60;66.88;96737.44;6160610;23;20013;-89
2024/03/26 00:29:12;;;;;;;0.95;0.95;;;;;;;3.76;66.44;96733.41;6165279;23;20001;-89
2024/03/26 00:31:37;;;;;;;0.90;0.90;;;;;;;3.54;67.00;96726.72;6162363;23;20017;-90
2024/03/26 00:34:03;;;;;;;0.90;0.90;;;;;;;3.23;68.33;96733.88;6154347;23;20028;-89
2024/03/26 00:36:30;;;;;;;0.90;0.90;;;;;;;2.94;69.06;96740.16;6128956;23;20013;-89
2024/03/26 00:38:56;;;;;;;1.00;1.00;;;;;;;2.50;71.04;96742.47;6153562;23;20021;-88
2024/03/26 00:41:21;;;;;;;0.80;0.80;;;;;;;2.34;71.59;96743.75;6180330;23;20064;-90
2024/03/26 00:43:47;;;;;;;1.00;1.00;;;;;;;2.57;71.65;96742.66;6179905;23;20472;-88
2024/03/26 00:46:12;;;;;;;0.90;0.90;;;;;;;2.67;71.79;96735.03;6152629;23;20449;-90
2024/03/26 00:48:38;;;;;;;0.90;0.90;;;;;;;2.43;72.61;96743.13;6129056;23;20400;-90
2024/03/26 00:51:03;;;;;;;1.00;1.00;;;;;;;2.38;72.64;96737.72;6152783;23;20411;-91
2024/03/26 00:53:29;;;;;;;1.00;1.00;;;;;;;2.58;72.04;96735.66;6152367;23;20048;-90
2024/03/26 00:55:54;;;;;;;0.90;0.90;;;;;;;2.89;70.68;96726.84;6152489;23;20224;-91
2024/03/26 00:58:20;;;;;;;1.00;1.00;;;;;;;2.76;70.92;96725.63;6128152;23;20041;-90
2024/03/26 01:00:45;;;;;;;1.00;1.00;;;;;;;2.80;70.92;96723.97;6163331;23;20001;-89
2024/03/26 01:03:11;;;;;;;1.00;1.00;;;;;;;2.36;72.97;96717.50;6156165;23;20046;-90
2024/03/26 01:05:36;;;;;;;0.90;0.90;;;;;;;2.89;71.04;96718.06;6153645;23;20009;-91
2024/03/26 01:08:03;;;;;;;1.00;1.00;;;;;;;2.44;73.29;96714.22;6154636;23;20056;-90
2024/03/26 01:10:29;;;;;;;1.10;1.10;;;;;;;3.09;69.65;96714.19;6152743;23;20036;-88
2024/03/26 01:12:54;;;;;;;1.00;1.00;;;;;;;2.67;72.01;96713.97;6127166;23;20027;-88
2024/03/26 01:15:20;;;;;;;1.02;1.02;;;;;;;3.11;70.50;96719.50;6152802;23;20017;-89
2024/03/26 01:17:45;;;;;;;1.00;1.00;;;;;;;3.42;68.45;96713.25;6151756;23;20063;-89
2024/03/26 01:20:12;;;;;;;0.90;0.90;;;;;;;2.87;70.79;96707.47;6125724;23;20037;-89
2024/03/26 01:22:38;;;;;;;1.00;1.00;;;;;;;2.41;72.72;96701.00;6151417;23;20028;-89
2024/03/26 01:25:05;;;;;;;1.07;1.07;;;;;;;2.31;73.84;96704.22;6151149;23;20298;-89
2024/03/26 01:27:31;;;;;;;1.10;1.10;;;;;;;1.98;75.78;96706.75;6151795;23;20001;-89
2024/03/26 01:29:56;;;;;;;1.00;1.00;;;;;;;1.81;76.32;96695.72;6126431;23;20021;-88
2024/03/26 01:32:22;;;;;;;1.10;1.10;;;;;;;1.85;76.93;96697.59;6151048;23;20321;-89
2024/03/26 01:34:51;;;;;;;1.10;1.10;;;;;;;1.91;76.34;96702.16;6150969;23;20055;-88
2024/03/26 01:37:16;;;;;;;1.05;1.05;;;;;;;1.90;76.37;96690.75;6176985;23;20017;-89
2024/03/26 01:39:41;;;;;;;1.05;1.05;;;;;;;1.84;77.07;96702.81;6151650;23;20016;-89
2024/03/26 01:42:07;;;;;;;1.00;1.00;;;;;;;1.94;76.71;96697.00;6151712;23;20009;-91
2024/03/26 01:44:32;;;;;;;1.00;1.00;;;;;;;1.92;76.74;96690.81;6152034;23;20019;-90
2024/03/26 01:46:58;;;;;;;1.10;1.10;;;;;;;1.98;76.62;96689.25;6151735;23;20017;-89
2024/03/26 01:49:23;;;;;;;1.08;1.08;;;;;;;1.99;76.63;96691.00;6150557;23;20317;-89
2024/03/26 01:51:49;;;;;;;1.00;1.00;;;;;;;1.65;77.86;96681.22;6126674;23;20017;-91
2024/03/26 01:54:15;;;;;;;1.00;1.00;;;;;;;1.35;79.39;96659.28;6126858;23;20017;-90
2024/03/26 01:56:42;;;;;;;1.10;1.10;;;;;;;1.24;80.10;96653.66;6153292;23;20250;-91
2024/03/26 01:59:08;;;;;;;1.10;1.10;;;;;;;0.92;81.58;96645.66;6152274;23;20024;-89
2024/03/26 02:01:35;;;;;;;1.00;1.00;;;;;;;0.82;82.36;96656.72;6125778;23;20652;-91
2024/03/26 02:04:00;;;;;;;1.10;1.10;;;;;;;0.61;83.16;96653.34;6150981;23;20024;-89
2024/03/26 02:06:25;;;;;;;1.00;1.00;;;;;;;0.66;82.36;96651.78;6125938;23;20610;-90
2024/03/26 02:08:51;;;;;;;1.10;1.10;;;;;;;0.52;83.74;96653.94;6151602;23;20099;-91
2024/03/26 02:11:17;;;;;;;0.95;0.95;;;;;;;0.58;84.14;96648.03;6150576;23;20099;-90
2024/03/26 02:13:46;;;;;;;1.00;1.00;;;;;;;0.62;84.00;96648.16;6179895;23;20021;-89
2024/03/26 02:16:12;;;;;;;1.10;1.10;;;;;;;0.37;85.14;96649.06;6133394;23;20017;-89
2024/03/26 02:18:37;;;;;;;1.02;1.02;;;;;;;0.19;85.93;96638.84;6156464;23;20001;-89
2024/03/26 02:21:03;;;;;;;1.00;1.00;;;;;;;0.05;86.53;96647.00;6158971;23;20016;-89
2024/03/26 02:23:29;;;;;;;1.00;1.00;;;;;;;0.20;86.53;96650.22;6158422;23;20028;-89
2024/03/26 02:25:54;;;;;;;1.10;1.10;;;;;;;-0.02;87.09;96659.03;6154556;23;20344;-89
2024/03/26 02:28:20;;;;;;;1.05;1.05;;;;;;;-0.08;87.34;96653.56;6127634;23;20092;-88
2024/03/26 02:30:45;;;;;;;1.10;1.10;;;;;;;-0.13;87.80;96661.25;6152496;23;20025;-89
2024/03/26 02:33:11;;;;;;;1.00;1.00;;;;;;;-0.15;88.31;96664.63;6127282;23;20436;-90
2024/03/26 02:35:37;;;;;;;1.10;1.10;;;;;;;-0.24;88.50;96659.06;6150855;23;20523;-89
2024/03/26 02:38:02;;;;;;;1.02;1.02;;;;;;;-0.30;89.05;96662.34;6151091;23;20008;-88
2024/03/26 02:40:28;;;;;;;1.10;1.10;;;;;;;-0.29;89.30;96669.38;6153036;23;20360;-89
2024/03/26 02:42:54;;;;;;;1.10;1.10;;;;;;;-0.06;88.79;96660.63;6184854;23;20017;-88
2024/03/26 02:45:19;;;;;;;1.02;1.02;;;;;;;-0.08;88.90;96656.19;6167699;23;20099;-90
2024/03/26 02:47:45;;;;;;;1.10;1.10;;;;;;;0.13;87.51;96645.56;6197661;23;20683;-88
2024/03/26 02:50:10;;;;;;;1.00;1.00;;;;;;;0.57;85.29;96646.22;6198487;23;20561;-88
2024/03/26 02:52:36;;;;;;;1.10;1.10;;;;;;;0.48;85.04;96634.59;6173248;23;20043;-87
2024/03/26 02:55:02;;;;;;;1.10;1.10;;;;;;;0.24;85.96;96637.25;6172424;23;20620;-88
2024/03/26 02:57:27;;;;;;;1.10;1.10;;;;;;;0.18;85.98;96633.50;6198774;23;20020;-88
2024/03/26 02:59:53;;;;;;;1.10;1.10;;;;;;;0.23;86.58;96634.56;6171970;23;20017;-88
2024/03/26 03:02:19;;;;;;;1.10;1.10;;;;;;;0.18;86.71;96628.25;6192451;23;20029;-91
2024/03/26 03:04:44;;;;;;;1.10;1.10;;;;;;;0.20;87.12;96631.84;6139363;23;20013;-90
2024/03/26 03:07:10;;;;;;;1.10;1.10;;;;;;;0.69;85.55;96626.53;6127860;23;20024;-89
2024/03/26 03:09:35;;;;;;;1.02;1.02;;;;;;;1.08;83.62;96617.28;6152141;23;20028;-90
2024/03/26 03:12:01;;;;;;;1.02;1.02;;;;;;;0.86;83.21;96603.44;6151962;23;20864;-90
2024/03/26 03:14:27;;;;;;;1.00;1.00;;;;;;;0.64;84.74;96593.13;6151808;23;20075;-91
2024/03/26 03:16:52;;;;;;;1.00;1.00;;;;;;;0.51;85.43;96589.19;6152026;23;20012;-90
2024/03/26 03:19:18;;;;;;;1.10;1.10;;;;;;;0.58;85.15;96596.44;6153497;23;20013;-91
2024/03/26 03:21:43;;;;;;;1.00;1.00;;;;;;;0.52;85.30;96609.31;6153091;23;20496;-91
2024/03/26 03:24:09;;;;;;;1.10;1.10;;;;;;;0.58;85.93;96614.81;6152967;23;20013;-90
2024/03/26 03:26:34;;;;;;;1.00;1.00;;;;;;;1.06;83.70;96611.97;6127889;23;20090;-90
2024/03/26 03:29:00;;;;;;;1.10;1.10;;;;;;;1.04;83.67;96605.78;6191050;23;20005;-89
2024/03/26 03:31:25;;;;;;;1.10;1.10;;;;;;;0.98;83.72;96601.22;6157544;23;20016;-90
2024/03/26 03:33:50;;;;;;;1.08;1.08;;;;;;;0.86;84.29;96597.31;6131315;23;20017;-91
2024/03/26 03:36:16;;;;;;;1.00;1.00;;;;;;;0.82;85.06;96590.22;6158039;23;20424;-89
2024/03/26 03:38:41;;;;;;;1.00;1.00;;;;;;;0.88;84.60;96590.41;6180573;23;20584;-91
2024/03/26 03:41:07;;;;;;;1.10;1.10;;;;;;;0.63;85.15;96604.47;6152534;23;20024;-90
2024/03/26 03:43:32;;;;;;;1.00;1.00;;;;;;;0.41;86.32;96602.84;6154055;23;20028;-89
2024/03/26 03:45:58;;;;;;;1.00;1.00;;;;;;;0.37;86.44;96604.47;6179254;23;20079;-90
2024/03/26 03:48:23;;;;;;;0.98;0.98;;;;;;;0.18;87.75;96600.31;6154013;23;20693;-90
2024/03/26 03:50:49;;;;;;;1.00;1.00;;;;;;;0.01;88.22;96606.72;6181364;23;20155;-91
2024/03/26 03:53:15;;;;;;;1.02;1.02;;;;;;;0.05;89.33;96600.75;6154102;23;20353;-90
2024/03/26 03:55:40;;;;;;;1.10;1.10;;;;;;;0.04;89.16;96601.56;6155363;23;20024;-89
2024/03/26 03:58:07;;;;;;;1.10;1.10;;;;;;;-0.13;89.43;96614.09;6156867;23;20025;-89
2024/03/26 04:00:33;;;;;;;1.10;1.10;;;;;;;0.04;89.74;96606.81;6155761;23;20005;-88
2024/03/26 04:03:00;;;;;;;0.98;0.98;;;;;;;-0.03;89.83;96602.19;6188454;23;20013;-90
2024/03/26 04:05:25;;;;;;;1.10;1.10;;;;;;;0.50;87.99;96590.03;6171735;23;20009;-90
2024/03/26 04:07:51;;;;;;;1.10;1.10;;;;;;;1.13;84.40;96592.94;6162150;23;20009;-89
2024/03/26 04:10:16;;;;;;;1.10;1.10;;;;;;;1.21;83.50;96591.44;6156456;23;20092;-89
2024/03/26 04:12:43;;;;;;;1.08;1.08;;;;;;;1.16;83.57;96587.78;6133484;23;20103;-89
2024/03/26 04:15:10;;;;;;;1.10;1.10;;;;;;;0.90;84.97;96586.97;6184093;23;20700;-90
2024/03/26 04:17:36;;;;;;;1.10;1.10;;;;;;;0.94;85.50;96585.34;6159822;23;20017;-90
2024/03/26 04:20:01;;;;;;;1.10;1.10;;;;;;;1.14;84.19;96591.19;6135153;23;20390;-90
2024/03/26 04:22:26;;;;;;;1.00;1.00;;;;;;;0.98;84.22;96582.84;6161665;23;20017;-88
2024/03/26 04:24:52;;;;;;;1.10;1.10;;;;;;;0.98;84.66;96571.47;6160195;23;20031;-88
2024/03/26 04:27:18;;;;;;;1.10;1.10;;;;;;;0.62;85.55;96572.06;6206034;23;19997;-88
2024/03/26 04:29:44;;;;;;;1.00;1.00;;;;;;;0.57;86.64;96564.88;6181117;23;20060;-88
2024/03/26 04:32:09;;;;;;;1.10;1.10;;;;;;;0.79;86.37;96567.38;6181691;23;20005;-89
2024/03/26 04:34:34;;;;;;;1.10;1.10;;;;;;;0.74;86.03;96561.97;6180520;23;20037;-89
2024/03/26 04:37:03;;;;;;;1.00;1.00;;;;;;;0.69;86.64;96562.66;6181122;23;20226;-88
2024/03/26 04:39:30;;;;;;;1.00;1.00;;;;;;;0.58;86.80;96562.34;6180243;23;20032;-89
2024/03/26 04:41:55;;;;;;;0.95;0.95;;;;;;;0.35;87.39;96561.56;6159484;23;20016;-88
2024/03/26 04:44:21;;;;;;;1.10;1.10;;;;;;;0.42;88.12;96565.28;6164515;23;20084;-89
2024/03/26 04:46:47;;;;;;;1.02;1.02;;;;;;;0.45;87.56;96563.66;6177827;23;20706;-91
2024/03/26 04:49:13;;;;;;;1.05;1.05;;;;;;;0.39;87.68;96567.81;6152725;23;20013;-90
2024/03/26 04:51:38;;;;;;;1.10;1.10;;;;;;;0.24;88.42;96563.84;6188715;23;20021;-90
2024/03/26 04:54:04;;;;;;;1.10;1.10;;;;;;;0.34;88.59;96561.53;6178737;23;20017;-92
2024/03/26 04:56:30;;;;;;;1.10;1.10;;;;;;;0.38;88.60;96560.75;6152760;23;20017;-90
2024/03/26 04:58:55;;;;;;;1.00;1.00;;;;;;;0.36;88.49;96572.94;6150907;23;20051;-90
2024/03/26 05:01:21;;;;;;;1.00;1.00;;;;;;;0.54;87.83;96572.66;6153573;23;20594;-90
2024/03/26 05:03:46;;;;;;;1.10;1.10;;;;;;;0.57;86.88;96578.88;6154341;23;20953;-90
2024/03/26 05:06:12;;;;;;;1.00;1.00;;;;;;;0.41;87.74;96576.63;6155991;23;20075;-90
2024/03/26 05:08:37;;;;;;;1.05;1.05;;;;;;;0.35;88.40;96568.56;6156799;23;20005;-89
2024/03/26 05:11:03;;;;;;;1.10;1.10;;;;;;;0.36;88.46;96560.72;6166564;23;20037;-90
2024/03/26 05:13:31;;;;;;;1.00;1.00;;;;;;;0.52;88.38;96560.38;6152890;23;20018;-91
2024/03/26 05:16:09;;;;;;;1.08;1.08;;;;;;;0.50;88.17;96558.56;6151924;23;20025;-90
2024/03/26 05:18:43;;;;;;;1.00;1.00;;;;;;;0.37;88.85;96554.63;6153175;23;20017;-87
2024/03/26 05:21:17;;;;;;;1.10;1.10;;;;;;;0.36;88.99;96555.47;6152947;23;20449;-90
2024/03/26 05:23:42;;;;;;;1.00;1.00;;;;;;;0.36;89.27;96559.84;6153293;23;20017;-89
2024/03/26 05:26:08;;;;;;;1.10;1.10;;;;;;;0.55;88.25;96556.97;6151525;23;20027;-89
2024/03/26 05:28:34;;;;;;;1.02;1.02;;;;;;;0.52;88.18;96564.72;6152395;23;20012;-91
2024/03/26 05:31:21;;;;;;;1.00;1.00;;;;;;;0.59;88.04;96565.84;6182225;23;20024;-90
2024/03/26 05:33:50;;;;;;;1.10;1.10;;;;;;;0.62;88.06;96561.56;6154848;23;20079;-90
2024/03/26 05:36:18;;;;;;;1.10;1.10;;;;;;;0.68;87.95;96560.91;6154842;23;20099;-90
2024/03/26 05:38:44;;;;;;;1.10;1.10;;;;;;;0.72;87.81;96553.16;6127888;23;20099;-89
2024/03/26 05:41:09;;;;;;;1.10;1.10;;;;;;;0.70;87.80;96540.81;6135258;23;20035;-90
2024/03/26 05:43:35;;;;;;;1.10;1.10;;;;;;;0.77;87.80;96540.19;6139051;23;20084;-88
2024/03/26 05:46:01;;;;;;;1.00;1.00;;;;;;;0.89;87.63;96544.91;6167813;23;20441;-88
2024/03/26 05:48:26;;;;;;;1.10;1.10;;;;;;;1.20;86.00;96555.53;6182434;23;20017;-90
2024/03/26 05:50:52;;;;;;;1.10;1.10;;;;;;;1.28;85.35;96566.25;6177294;23;20024;-86
2024/03/26 05:53:19;;;;;;;1.10;1.10;;;;;;;1.54;84.49;96567.03;6152549;23;20191;-87
2024/03/26 05:55:45;;;;;;;1.00;1.00;;;;;;;1.77;82.99;96563.31;6126345;23;20416;-90
2024/03/26 05:58:11;;;;;;;1.00;1.00;;;;;;;2.12;81.34;96558.13;6152161;23;20012;-89
2024/03/26 06:00:36;;;;;;;1.10;1.10;;;;;;;2.23;81.48;96554.03;6178380;23;20025;-90
2024/03/26 06:03:05;;;;;;;0.90;0.90;;;;;;;2.35;82.07;96557.81;6150955;23;20020;-89
2024/03/26 06:05:33;;;;;;;1.10;1.10;;;;;;;2.52;81.45;96551.25;6125804;23;20409;-88
2024/03/26 06:08:01;;;;;;;1.00;1.00;;;;;;;2.61;80.93;96548.84;6177871;23;20017;-89
2024/03/26 06:10:28;;;;;;;1.00;1.00;;;;;;;2.46;80.13;96545.84;6151779;23;20112;-88
2024/03/26 06:12:53;;;;;;;1.10;1.10;;;;;;;2.40;80.46;96538.69;6151617;23;20024;-91
2024/03/26 06:15:19;;;;;;;0.90;0.90;;;;;;;2.65;79.94;96545.44;6151717;23;20009;-91
2024/03/26 06:17:44;;;;;;;1.00;1.00;;;;;;;2.96;79.78;96538.25;6151920;23;20027;-90
2024/03/26 06:20:10;;;;;;;1.00;1.00;;;;;;;3.10;79.31;96526.28;6151146;23;20555;-91
2024/03/26 06:22:36;;;;;;;0.90;0.90;;;;;;;3.29;78.53;96517.06;6127156;23;20017;-90
2024/03/26 06:25:01;;;;;;;1.00;1.00;;;;;;;3.50;77.11;96521.91;6127528;23;20531;-90
2024/03/26 06:27:27;;;;;;;1.00;1.00;;;;;;;3.67;75.98;96509.06;6184912;23;20013;-89
2024/03/26 06:29:53;;;;;;;0.93;0.93;;;;;;;3.89;75.53;96499.81;6131646;23;20013;-89
2024/03/26 06:32:19;;;;;;;1.00;1.00;;;;;;;4.10;74.92;96505.47;6125320;23;20114;-87
2024/03/26 06:34:44;;;;;;;0.90;0.90;;;;;;;4.06;74.74;96508.91;6151070;23;20012;-90
2024/03/26 06:37:10;;;;;;;0.80;0.80;;;;;;;4.28;73.84;96505.81;6157349;23;20008;-90
2024/03/26 06:39:35;;;;;;;0.90;0.90;;;;;;;4.30;73.33;96490.88;6127798;23;20492;-91
2024/03/26 06:42:01;;;;;;;0.90;0.90;;;;;;;4.42;73.36;96481.41;6155163;23;20013;-92
2024/03/26 06:44:28;;;;;;;0.90;0.90;;;;;;;4.57;73.06;96477.25;6129906;23;20025;-93
2024/03/26 06:46:55;;;;;;;0.90;0.90;;;;;;;4.46;74.11;96472.69;6161271;23;20072;-93
2024/03/26 06:49:20;;;;;;;0.90;0.90;;;;;;;4.54;73.40;96461.34;6171118;23;20013;-91
2024/03/26 06:51:46;;;;;;;0.90;0.90;;;;;;;4.83;71.93;96453.88;6149938;23;20017;-93
2024/03/26 06:54:22;;;;;;;0.90;0.90;;;;;;;4.95;71.13;96458.47;6175895;23;20469;-91
2024/03/26 06:56:52;;;;;;;0.90;0.90;;;;;;;5.13;71.20;96461.38;6202057;23;20036;-94
2024/03/26 06:59:22;;;;;;;0.90;0.90;;;;;;;5.40;70.34;96466.09;6176508;23;20048;-94
2024/03/26 07:01:53;;;;;;;0.80;0.80;;;;;;;5.61;69.51;96451.41;6149542;23;20003;-91
2024/03/26 07:04:38;;;;;;;0.90;0.90;;;;;;;5.75;68.96;96457.72;6180739;23;20068;-93
2024/03/26 07:07:04;;;;;;;0.90;0.90;;;;;;;6.00;67.55;96447.44;6175889;23;20021;-93
2024/03/26 07:09:31;;;;;;;0.82;0.82;;;;;;;6.23;67.03;96443.25;6144933;23;20005;-93
2024/03/26 07:11:58;;;;;;;0.80;0.80;;;;;;;6.29;66.59;96443.28;6199544;23;20009;-94
2024/03/26 07:14:23;;;;;;;0.90;0.90;;;;;;;6.36;66.11;96442.47;6116812;23;20016;-92
2024/03/26 07:16:48;;;;;;;0.80;0.80;;;;;;;6.63;64.62;96441.81;6135699;23;20025;-90
2024/03/26 07:19:14;;;;;;;0.80;0.80;;;;;;;6.77;63.85;96441.03;6156935;23;20349;-93
2024/03/26 07:21:39;;;;;;;0.80;0.80;;;;;;;6.80;63.13;96443.69;6157524;23;20040;-91
2024/03/26 07:24:07;;;;;;;0.70;0.70;;;;;;;6.98;62.60;96427.00;6132498;23;20055;-90
2024/03/26 07:26:33;;;;;;;0.80;0.80;;;;;;;7.35;62.17;96436.06;6156227;23;20108;-92
2024/03/26 07:29:00;;;;;;;0.70;0.70;;;;;;;7.58;61.15;96434.41;6134908;23;20017;-91
2024/03/26 07:31:26;;;;;;;0.70;0.70;;;;;;;7.46;61.88;96426.38;6138154;23;20089;-92
2024/03/26 07:33:52;;;;;;;0.70;0.70;;;;;;;7.79;60.47;96422.06;6168524;23;20021;-93
2024/03/26 07:36:17;;;;;;;0.70;0.70;;;;;;;8.03;58.76;96421.22;6143093;23;20021;-89
2024/03/26 07:38:43;;;;;;;0.70;0.70;;;;;;;8.15;58.20;96415.97;6190397;23;20068;-90
2024/03/26 07:41:09;;;;;;;0.60;0.60;;;;;;;8.13;58.66;96418.59;6165715;23;20009;-92
2024/03/26 07:43:35;;;;;;;0.70;0.70;;;;;;;8.35;58.39;96415.97;6153518;23;20024;-91
2024/03/26 07:46:01;;;;;;;0.70;0.70;;;;;;;8.38;58.39;96419.53;6152936;23;20071;-91
2024/03/26 07:48:27;;;;;;;0.70;0.70;;;;;;;8.48;57.87;96416.00;6151406;23;20021;-89
2024/03/26 07:50:52;;;;;;;0.60;0.60;;;;;;;8.42;58.29;96421.31;6150518;23;20012;-88
2024/03/26 07:53:18;;;;;;;0.70;0.70;;;;;;;8.40;58.47;96416.88;6176590;23;20024;-89
2024/03/26 07:55:44;;;;;;;0.73;0.73;;;;;;;8.44;58.73;96416.91;6127562;23;20543;-89
2024/03/26 07:58:10;;;;;;;0.70;0.70;;;;;;;8.61;57.90;96408.91;6125242;23;20118;-90
2024/03/26 08:00:35;;;;;;;0.77;0.77;;;;;;;8.70;58.43;96416.88;6125789;23;20102;-90
2024/03/26 08:03:01;;;;;;;0.70;0.70;;;;;;;8.54;58.47;96415.13;6179990;23;20332;-91
2024/03/26 08:05:26;;;;;;;0.70;0.70;;;;;;;8.65;58.01;96412.44;6129908;23;20008;-90
2024/03/26 08:07:53;;;;;;;0.63;0.63;;;;;;;8.43;57.36;96420.44;6153684;23;20017;-89
2024/03/26 08:10:19;;;;;;;0.70;0.70;;;;;;;8.50;56.99;96423.09;6152630;23;20026;-90
2024/03/26 08:12:45;;;;;;;0.73;0.73;;;;;;;8.72;55.67;96419.56;6136516;23;20021;-92
2024/03/26 08:15:11;;;;;;;0.77;0.77;;;;;;;9.13;55.06;96416.78;6129170;23;20859;-91
2024/03/26 08:17:40;;;;;;;0.70;0.70;;;;;;;9.45;54.28;96418.47;6155836;23;20043;-92
2024/03/26 08:20:09;;;;;;;0.70;0.70;;;;;;;9.83;52.33;96404.13;6154732;23;20013;-90
2024/03/26 08:22:37;;;;;;;0.70;0.70;;;;;;;9.51;53.25;96400.69;6153875;23;20021;-91
2024/03/26 08:25:05;;;;;;;0.75;0.75;;;;;;;10.12;51.79;96393.28;6152947;23;20005;-91
2024/03/26 08:27:33;;;;;;;0.60;0.60;;;;;;;10.79;50.42;96392.78;6129706;23;20560;-91
2024/03/26 08:29:58;;;;;;;0.60;0.60;;;;;;;10.78;49.93;96383.88;6151747;23;20047;-89
2024/03/26 08:32:24;;;;;;;0.60;0.60;;;;;;;11.04;50.18;96383.63;6152674;23;20123;-91
2024/03/26 08:34:49;;;;;;;0.60;0.60;;;;;;;11.25;49.60;96378.94;6150855;23;20013;-92
2024/03/26 08:37:16;;;;;;;0.60;0.60;;;;;;;11.68;48.60;96381.09;6155309;23;20641;-93
2024/03/26 08:39:42;;;;;;;0.60;0.60;;;;;;;11.78;47.65;96386.28;6130797;23;20444;-94
2024/03/26 08:42:09;;;;;;;0.60;0.60;;;;;;;11.39;48.48;96382.34;6155017;23;20015;-94
2024/03/26 08:44:34;;;;;;;0.50;0.50;;;;;;;11.61;47.21;96384.75;6155452;23;20020;-94
2024/03/26 08:47:00;;;;;;;0.50;0.50;;;;;;;10.71;49.00;96390.16;6153268;23;20021;-92
2024/03/26 08:49:25;;;;;;;0.50;0.50;;;;;;;11.49;47.96;96383.09;6154721;23;20385;-91
2024/03/26 08:51:51;;;;;;;0.60;0.60;;;;;;;12.04;46.47;96377.97;6154574;23;20556;-93
2024/03/26 08:54:17;;;;;;;0.60;0.60;;;;;;;10.85;48.55;96379.38;6153095;23;20016;-94
2024/03/26 08:56:42;;;;;;;0.50;0.50;;;;;;;11.94;47.06;96376.31;6129361;23;20021;-93
2024/03/26 08:59:08;;;;;;;0.60;0.60;;;;;;;12.71;44.58;96367.09;6129642;23;20348;-93
2024/03/26 09:01:33;;;;;;;0.50;0.50;;;;;;;12.74;44.60;96380.41;6155121;23;20289;-93
2024/03/26 09:03:59;;;;;;;0.50;0.50;;;;;;;12.88;44.58;96375.69;6154502;23;20028;-94
2024/03/26 09:06:24;;;;;;;0.50;0.50;;;;;;;13.15;44.25;96382.34;6154552;23;20421;-91
2024/03/26 09:08:50;;;;;;;0.60;0.60;;;;;;;12.80;46.10;96377.66;6130683;23;20017;-91
2024/03/26 09:11:18;;;;;;;0.57;0.57;;;;;;;13.08;45.52;96370.88;6155125;23;20021;-92
2024/03/26 09:13:44;;;;;;;0.60;0.60;;;;;;;12.75;46.19;96377.72;6106937;23;20096;-93
2024/03/26 09:16:10;;;;;;;0.60;0.60;;;;;;;13.48;44.28;96375.50;6156806;23;20021;-91
2024/03/26 09:18:36;;;;;;;0.50;0.50;;;;;;;13.47;44.47;96378.22;6133647;23;20064;-92
2024/03/26 09:21:02;;;;;;;0.60;0.60;;;;;;;13.42;45.35;96375.63;6160149;23;20075;-93
2024/03/26 09:23:28;;;;;;;0.60;0.60;;;;;;;13.93;44.49;96371.88;6135667;23;20084;-91
2024/03/26 09:25:53;;;;;;;0.55;0.55;;;;;;;14.13;43.74;96361.56;6156258;23;20021;-94
2024/03/26 09:28:21;;;;;;;0.52;0.52;;;;;;;13.96;43.35;96363.78;6156125;23;20028;-92
2024/03/26 09:30:51;;;;;;;0.52;0.52;;;;;;;14.93;40.41;96357.84;6155098;23;20020;-93
2024/03/26 09:33:19;;;;;;;0.50;0.50;;;;;;;16.15;39.01;96357.09;6155676;23;20016;-92
2024/03/26 09:35:45;;;;;;;;;;;;;;;16.02;40.09;96358.38;6107173;23;20047;-94
2024/03/26 09:38:11;;;;;;;;;;;;;;;15.44;40.25;96349.31;6156181;23;20322;-94
2024/03/26 09:40:37;;;;;;;;;;;;;;;15.70;38.96;96355.78;6156703;23;19928;-93
2024/03/26 09:43:05;;;;;;;;;;;;;;;16.29;37.68;96345.00;6158622;23;19908;-93
2024/03/26 09:45:32;;;;;;;;;;;;;;;16.55;37.94;96331.59;6135881;23;19916;-92
2024/03/26 09:48:00;;;;;;;;;;;;;;;16.34;38.20;96325.09;6160703;23;19916;-93
2024/03/26 09:50:28;;;;;;;;;;;;;;;17.09;36.28;96321.72;6189144;23;19916;-94
2024/03/26 09:52:54;;;;;;;;;;;;;;;17.59;35.42;96317.19;6139283;23;20232;-93
2024/03/26 09:55:23;;;;;;;;;;;;;;;16.92;37.00;96319.63;6167676;23;19912;-93
2024/03/26 09:57:49;;;;;;;;;;;;;;;17.96;35.77;96313.09;6169368;23;19916;-93
2024/03/26 10:00:14;;;;;;;;;;;;;;;18.02;35.70;96304.78;6140115;23;20225;-93
2024/03/26 10:02:40;;;;;;;;;;;;;;;17.51;36.68;96296.84;6132827;23;19916;-93
2024/03/26 10:05:07;;;;;;;;;;;;;;;18.07;35.99;96291.13;6179629;23;19912;-93
2024/03/26 10:07:32;;;;;;;;;;;;;;;18.45;35.85;96284.19;6181597;23;19944;-91
2024/03/26 10:10:00;;;;;;;;;;;;;;;17.49;37.00;96290.63;6154026;23;19927;-90
2024/03/26 10:12:25;;;;;;;;;;;;;;;18.61;35.83;96277.19;6154184;23;19916;-92
2024/03/26 10:14:51;;;;;;;;;;;;;;;18.80;35.35;96273.75;6153731;23;20007;-92
2024/03/26 10:17:17;;;;;;;;;;;;;;;19.11;34.55;96274.16;6154773;23;20335;-92
2024/03/26 10:19:42;;;;;;;;;;;;;;;20.12;33.31;96263.22;6153396;23;20083;-91
2024/03/26 10:22:14;;;;;;;;;;;;;;;21.19;31.47;96250.59;6153318;23;20006;-91
2024/03/26 10:24:41;;;;;;;;;;;;;;;20.42;32.43;96250.91;6154124;23;19916;-92
2024/03/26 10:27:06;;;;;;;;;;;;;;;19.20;33.67;96253.94;6154807;23;19954;-92
2024/03/26 10:29:31;;;;;;;;;;;;;;;18.59;35.51;96257.47;6155646;23;19912;-94
2024/03/26 10:31:57;;;;;;;;;;;;;;;18.30;36.12;96250.59;6130393;23;20575;-92
2024/03/26 10:34:24;;;;;;;;;;;;;;;17.41;38.44;96250.47;6130364;23;19912;-91
2024/03/26 10:36:51;;;;;;;;;;;;;;;17.12;38.80;96255.13;6154239;23;19916;-91
2024/03/26 10:39:18;;;;;;;;;;;;;;;17.84;37.96;96252.44;6153334;23;19923;-92
2024/03/26 10:41:45;;;;;;;;;;;;;;;18.62;37.08;96251.91;6153983;23;19916;-92
2024/03/26 10:44:11;;;;;;;;;;;;;;;18.64;36.78;96236.56;6132429;23;19908;-92
2024/03/26 10:46:36;;;;;;;;;;;;;;;20.72;33.04;96228.66;6135908;23;19922;-92
2024/03/26 10:49:02;;;;;;;;;;;;;;;21.75;31.52;96216.84;6157109;23;19912;-93
2024/03/26 10:51:28;;;;;;;;;;;;;;;23.14;29.88;96207.00;6155352;23;19966;-91
2024/03/26 10:53:59;;;;;;;;;;;;;;;23.55;29.17;96205.31;6130562;23;19920;-94
2024/03/26 10:56:25;;;;;;;;;;;;;;;23.58;28.19;96198.81;6158477;23;19919;-92
2024/03/26 10:58:51;;;;;;;;;;;;;;;23.59;28.74;96195.09;6158346;23;19908;-93
2024/03/26 11:01:18;;;;;;;;;;;;;;;22.82;29.82;96195.34;6185174;23;19912;-91
2024/03/26 11:03:45;;;;;;;;;;;;;;;23.11;31.24;96191.75;6132920;23;19916;-93
2024/03/26 11:06:11;;;;;;;;;;;;;;;22.86;29.50;96180.59;6156214;23;19920;-94
2024/03/26 11:08:40;;;;;;;;;;;;;;;22.49;29.82;96182.78;6156956;23;20440;-93
2024/03/26 11:11:06;;;;;;;;;;;;;;;23.67;29.47;96171.03;6157034;23;19916;-93
2024/03/26 11:13:33;;;;;;;;;;;;;;;24.26;28.31;96162.66;6190829;23;19978;-91
2024/03/26 11:15:59;;;;;;;;;;;;;;;25.08;27.22;96154.31;6167132;23;19967;-95
2024/03/26 11:18:28;;;;;;;;;;;;;;;25.89;25.85;96150.41;6161003;23;19912;-92
2024/03/26 11:21:01;;;;;;;;;;;;;;;23.75;27.91;96152.34;6155605;23;19951;-91
2024/03/26 11:23:30;;;;;;;;;;;;;;;25.04;26.38;96143.69;6155382;23;20385;-92
2024/03/26 11:25:55;;;;;;;;;;;;;;;24.42;27.37;96146.16;6153438;23;20044;-91
2024/03/26 11:28:21;;;;;;;;;;;;;;;24.78;25.69;96145.53;6154096;23;19947;-90
2024/03/26 11:30:48;;;;;;;;;;;;;;;22.49;28.35;96152.88;6129291;23;19916;-90
2024/03/26 11:33:23;;;;;;;;;;;;;;;24.53;27.15;96143.59;6180015;23;19920;-90
2024/03/26 11:35:49;;;;;;;;;;;;;;;26.18;24.52;96140.03;6153964;23;19939;-90
2024/03/26 11:38:15;;;;;;;;;;;;;;;24.70;25.13;96137.00;6129386;23;19965;-92
2024/03/26 11:40:40;;;;;;;;;;;;;;;25.32;24.88;96127.16;6152799;23;19916;-92
2024/03/26 11:43:09;;;;;;;;;;;;;;;24.96;25.93;96121.53;6156713;23;19912;-93
2024/03/26 11:45:34;;;;;;;;;;;;;;;25.25;24.42;96112.22;6151349;23;19923;-91
2024/03/26 11:48:00;;;;;;;;;;;;;;;25.51;23.90;96106.72;6151081;23;19916;-91